CES7630 ZUXC-PHNL
Flight info
| Callsign | CES7630 |
|---|---|
| Flight time | N/A |
| Altitude | 35100 |
| Route | BOPTU W162 KAKMI W144 IGNAK W179 WFX B213 ESPEG V154 SNF W269 OLPOV B213 WHA R343 PK A593 AKARA/K0920F351 A593 LAMEN/N0496F351 A593 SADLI Y590 BEDAR Y591 FUE Y23 KASTE Y81 TASOT Y57 LIGNI Y816 IPROS Y830 LAPIL OTR13 SEALS DCT 34N153E DCT 34N159E DCT 33N166E DCT 31N173E DCT 29N179E DCT 27N174W DCT 25N168W DCT CANON DCT CANON |
| Aircraft | MD11/H-SDE1E2E3FGHIJ2J3J4J5M1RWXY/LB1D1 |
Departure
| Time | 2026-04-11 16:34 |
|---|---|
| Airport | Xichang Qingshan Airport (ZUXC) |
Arrival
| Time | N/A |
|---|---|
| Airport | Daniel K. Inouye International Airport (PHNL) |
| Time | Latitude | Longitude | Altitude | Speed | Heading |
|---|---|---|---|---|---|
| 2026-04-11 16:12 | 27.98292 | 102.18647 | 5089 ft | 0 kts | 88° |
| 2026-04-11 16:23 | 27.98292 | 102.18641 | 5074 ft | 4 kts | 87° |
| 2026-04-11 16:24 | 27.98291 | 102.18613 | 5073 ft | 3 kts | 88° |
| 2026-04-11 16:24 | 27.98288 | 102.18587 | 5074 ft | 4 kts | 57° |
| 2026-04-11 16:24 | 27.98280 | 102.18574 | 5081 ft | 4 kts | 358° |
| 2026-04-11 16:24 | 27.98258 | 102.18581 | 5077 ft | 4 kts | 336° |
| 2026-04-11 16:25 | 27.98234 | 102.18591 | 5078 ft | 3 kts | 356° |
| 2026-04-11 16:25 | 27.98230 | 102.18591 | 5075 ft | 0 kts | 0° |
| 2026-04-11 16:27 | 27.98251 | 102.18591 | 5075 ft | 5 kts | 360° |
| 2026-04-11 16:28 | 27.98289 | 102.18591 | 5076 ft | 5 kts | 358° |
| 2026-04-11 16:28 | 27.98328 | 102.18589 | 5076 ft | 6 kts | 358° |
| 2026-04-11 16:28 | 27.98381 | 102.18587 | 5076 ft | 9 kts | 358° |
| 2026-04-11 16:28 | 27.98452 | 102.18584 | 5076 ft | 11 kts | 358° |
| 2026-04-11 16:29 | 27.98537 | 102.18581 | 5073 ft | 13 kts | 358° |
| 2026-04-11 16:29 | 27.98635 | 102.18577 | 5073 ft | 15 kts | 358° |
| 2026-04-11 16:29 | 27.98743 | 102.18573 | 5073 ft | 16 kts | 358° |
| 2026-04-11 16:29 | 27.98862 | 102.18569 | 5073 ft | 18 kts | 358° |
| 2026-04-11 16:30 | 27.98990 | 102.18564 | 5075 ft | 19 kts | 358° |
| 2026-04-11 16:30 | 27.99125 | 102.18559 | 5076 ft | 20 kts | 358° |
| 2026-04-11 16:30 | 27.99268 | 102.18553 | 5076 ft | 21 kts | 358° |
| 2026-04-11 16:30 | 27.99419 | 102.18548 | 5076 ft | 22 kts | 358° |
| 2026-04-11 16:31 | 27.99577 | 102.18542 | 5079 ft | 23 kts | 358° |
| 2026-04-11 16:31 | 27.99740 | 102.18535 | 5078 ft | 24 kts | 358° |
| 2026-04-11 16:31 | 27.99913 | 102.18529 | 5078 ft | 25 kts | 358° |
| 2026-04-11 16:31 | 28.00091 | 102.18521 | 5078 ft | 26 kts | 358° |
| 2026-04-11 16:32 | 28.00252 | 102.18514 | 5083 ft | 23 kts | 358° |
| 2026-04-11 16:32 | 28.00414 | 102.18509 | 5084 ft | 20 kts | 358° |
| 2026-04-11 16:32 | 28.00482 | 102.18499 | 5084 ft | 5 kts | 327° |
| 2026-04-11 16:32 | 28.00491 | 102.18476 | 5085 ft | 3 kts | 286° |
| 2026-04-11 16:33 | 28.00497 | 102.18447 | 5082 ft | 5 kts | 279° |
| 2026-04-11 16:33 | 28.00494 | 102.18391 | 5082 ft | 7 kts | 253° |
| 2026-04-11 16:33 | 28.00459 | 102.18375 | 5082 ft | 7 kts | 182° |
| 2026-04-11 16:33 | 28.00276 | 102.18378 | 5082 ft | 62 kts | 178° |
| 2026-04-11 16:34 | 27.99600 | 102.18403 | 5078 ft | 130 kts | 178° |
| 2026-04-11 16:34 | 27.98510 | 102.18443 | 5078 ft | 178 kts | 179° |
| 2026-04-11 16:34 | 27.97223 | 102.18536 | 5344 ft | 189 kts | 177° |
| 2026-04-11 16:34 | 27.95906 | 102.18639 | 5931 ft | 188 kts | 178° |
| 2026-04-11 16:35 | 27.94592 | 102.18714 | 6496 ft | 191 kts | 178° |
| 2026-04-11 16:35 | 27.93259 | 102.18786 | 7047 ft | 194 kts | 178° |
| 2026-04-11 16:35 | 27.91906 | 102.18860 | 7505 ft | 195 kts | 178° |
| 2026-04-11 16:35 | 27.90589 | 102.18909 | 7986 ft | 188 kts | 183° |
| 2026-04-11 16:36 | 27.89293 | 102.18672 | 8331 ft | 197 kts | 196° |
| 2026-04-11 16:36 | 27.87942 | 102.18152 | 8489 ft | 213 kts | 199° |
| 2026-04-11 16:36 | 27.86491 | 102.17608 | 8620 ft | 225 kts | 189° |
| 2026-04-11 16:36 | 27.84947 | 102.17751 | 8879 ft | 226 kts | 161° |
| 2026-04-11 16:37 | 27.83501 | 102.18483 | 9231 ft | 228 kts | 155° |
| 2026-04-11 16:37 | 27.82093 | 102.19296 | 9804 ft | 227 kts | 155° |
| 2026-04-11 16:37 | 27.80696 | 102.20109 | 10207 ft | 231 kts | 153° |
| 2026-04-11 16:37 | 27.79375 | 102.21175 | 10520 ft | 242 kts | 138° |
| 2026-04-11 16:38 | 27.78415 | 102.22800 | 10641 ft | 259 kts | 112° |
| 2026-04-11 16:38 | 27.78190 | 102.24870 | 10771 ft | 277 kts | 84° |
| 2026-04-11 16:38 | 27.78780 | 102.27024 | 10893 ft | 299 kts | 68° |
| 2026-04-11 16:38 | 27.79724 | 102.29218 | 11037 ft | 322 kts | 64° |
| 2026-04-11 16:39 | 27.80805 | 102.31547 | 11172 ft | 346 kts | 63° |
| 2026-04-11 16:39 | 27.81966 | 102.34036 | 11329 ft | 370 kts | 64° |
| 2026-04-11 16:39 | 27.83180 | 102.36669 | 11650 ft | 385 kts | 64° |
| 2026-04-11 16:39 | 27.84395 | 102.39331 | 12370 ft | 388 kts | 64° |
| 2026-04-11 16:40 | 27.85625 | 102.42048 | 13137 ft | 391 kts | 64° |
| 2026-04-11 16:40 | 27.86865 | 102.44806 | 13795 ft | 396 kts | 64° |
| 2026-04-11 16:40 | 27.88118 | 102.47603 | 14416 ft | 401 kts | 64° |
| 2026-04-11 16:40 | 27.89382 | 102.50429 | 15061 ft | 406 kts | 64° |
| 2026-04-11 16:41 | 27.90670 | 102.53298 | 15688 ft | 411 kts | 63° |
| 2026-04-11 16:41 | 27.91973 | 102.56192 | 16286 ft | 415 kts | 63° |
| 2026-04-11 16:41 | 27.93293 | 102.59120 | 16852 ft | 420 kts | 63° |
| 2026-04-11 16:41 | 27.94609 | 102.62039 | 17453 ft | 425 kts | 63° |
| 2026-04-11 16:42 | 27.95959 | 102.65036 | 18075 ft | 430 kts | 62° |
| 2026-04-11 16:42 | 27.97322 | 102.68063 | 18599 ft | 434 kts | 62° |
| 2026-04-11 16:42 | 27.98696 | 102.71117 | 19085 ft | 437 kts | 62° |
| 2026-04-11 16:43 | 28.01476 | 102.77306 | 20120 ft | 446 kts | 62° |
| 2026-04-11 16:43 | 28.02887 | 102.80448 | 20558 ft | 450 kts | 62° |
| 2026-04-11 16:43 | 28.04290 | 102.83576 | 21036 ft | 454 kts | 61° |
| 2026-04-11 16:43 | 28.05722 | 102.86770 | 21583 ft | 456 kts | 62° |
| 2026-04-11 16:44 | 28.07143 | 102.89948 | 22371 ft | 452 kts | 62° |
| 2026-04-11 16:44 | 28.08566 | 102.93131 | 22921 ft | 455 kts | 62° |
| 2026-04-11 16:44 | 28.10001 | 102.96341 | 23425 ft | 458 kts | 62° |
| 2026-04-11 16:44 | 28.11446 | 102.99573 | 23821 ft | 462 kts | 62° |
| 2026-04-11 16:45 | 28.12905 | 103.02841 | 24156 ft | 467 kts | 62° |
| 2026-04-11 16:45 | 28.14380 | 103.06147 | 24462 ft | 473 kts | 62° |
| 2026-04-11 16:45 | 28.15868 | 103.09487 | 24786 ft | 478 kts | 62° |
| 2026-04-11 16:45 | 28.17352 | 103.12820 | 25134 ft | 483 kts | 62° |
| 2026-04-11 16:46 | 28.18875 | 103.16243 | 25382 ft | 490 kts | 62° |
| 2026-04-11 16:46 | 28.20413 | 103.19704 | 25733 ft | 495 kts | 62° |
| 2026-04-11 16:46 | 28.21968 | 103.23205 | 26025 ft | 500 kts | 62° |
| 2026-04-11 16:46 | 28.23537 | 103.26743 | 26309 ft | 505 kts | 62° |
| 2026-04-11 16:47 | 28.25122 | 103.30317 | 26601 ft | 509 kts | 62° |
| 2026-04-11 16:47 | 28.26715 | 103.33919 | 26921 ft | 513 kts | 62° |
| 2026-04-11 16:47 | 28.28315 | 103.37559 | 27213 ft | 518 kts | 61° |
| 2026-04-11 16:47 | 28.29919 | 103.41210 | 27725 ft | 517 kts | 62° |
| 2026-04-11 16:48 | 28.31496 | 103.44799 | 28313 ft | 515 kts | 62° |
| 2026-04-11 16:48 | 28.33094 | 103.48435 | 28802 ft | 513 kts | 62° |
| 2026-04-11 16:48 | 28.34684 | 103.52047 | 29378 ft | 511 kts | 62° |
| 2026-04-11 16:48 | 28.36255 | 103.55620 | 30117 ft | 505 kts | 61° |
| 2026-04-11 16:49 | 28.37827 | 103.59191 | 30530 ft | 506 kts | 61° |
| 2026-04-11 16:49 | 28.39402 | 103.62771 | 30932 ft | 507 kts | 61° |
| 2026-04-11 16:49 | 28.40977 | 103.66353 | 31306 ft | 508 kts | 61° |
| 2026-04-11 16:49 | 28.42536 | 103.69904 | 31709 ft | 510 kts | 62° |
| 2026-04-11 16:50 | 28.44119 | 103.73514 | 32074 ft | 511 kts | 61° |
| 2026-04-11 16:50 | 28.45702 | 103.77128 | 32390 ft | 512 kts | 62° |
| 2026-04-11 16:50 | 28.47292 | 103.80761 | 32678 ft | 513 kts | 62° |
| 2026-04-11 16:50 | 28.48883 | 103.84397 | 33128 ft | 515 kts | 62° |
| 2026-04-11 16:51 | 28.50477 | 103.88043 | 33434 ft | 516 kts | 62° |
| 2026-04-11 16:51 | 28.52075 | 103.91703 | 33759 ft | 516 kts | 62° |
| 2026-04-11 16:51 | 28.53666 | 103.95353 | 34141 ft | 515 kts | 62° |
| 2026-04-11 16:51 | 28.55231 | 103.98948 | 34470 ft | 513 kts | 62° |
| 2026-04-11 16:52 | 28.56811 | 104.02577 | 34797 ft | 511 kts | 63° |
| 2026-04-11 16:52 | 28.58385 | 104.06217 | 34938 ft | 515 kts | 62° |
| 2026-04-11 16:52 | 28.59970 | 104.09892 | 34982 ft | 519 kts | 62° |
| 2026-04-11 16:53 | 28.63234 | 104.17252 | 35001 ft | 520 kts | 57° |
| 2026-04-11 16:53 | 28.67623 | 104.23570 | 34973 ft | 501 kts | 34° |
| 2026-04-11 16:53 | 28.70370 | 104.25837 | 34986 ft | 490 kts | 21° |
| 2026-04-11 16:54 | 28.73400 | 104.27491 | 34991 ft | 477 kts | 10° |
| 2026-04-11 16:54 | 28.76546 | 104.28520 | 34992 ft | 464 kts | 360° |
| 2026-04-11 16:54 | 28.79712 | 104.28970 | 35010 ft | 453 kts | 351° |
| 2026-04-11 16:55 | 28.85918 | 104.28742 | 34994 ft | 443 kts | 344° |
| 2026-04-11 16:55 | 28.92051 | 104.28220 | 34992 ft | 443 kts | 344° |
| 2026-04-11 16:56 | 29.01253 | 104.27611 | 34992 ft | 444 kts | 345° |
| 2026-04-11 16:56 | 29.07430 | 104.27266 | 35015 ft | 445 kts | 345° |
| 2026-04-11 16:57 | 29.13599 | 104.26930 | 34989 ft | 442 kts | 345° |
| 2026-04-11 16:57 | 29.19695 | 104.26593 | 34996 ft | 442 kts | 345° |
| 2026-04-11 16:58 | 29.25833 | 104.26258 | 34996 ft | 443 kts | 347° |
| 2026-04-11 16:58 | 29.32106 | 104.26766 | 35002 ft | 458 kts | 357° |
| 2026-04-11 16:59 | 29.38429 | 104.27909 | 35007 ft | 460 kts | 359° |
| 2026-04-11 16:59 | 29.44741 | 104.29078 | 35003 ft | 459 kts | 358° |
| 2026-04-11 17:00 | 29.51010 | 104.30175 | 35007 ft | 459 kts | 358° |
| 2026-04-11 17:00 | 29.57325 | 104.31255 | 35011 ft | 459 kts | 358° |
| 2026-04-11 17:01 | 29.63640 | 104.32332 | 35030 ft | 459 kts | 358° |
| 2026-04-11 17:01 | 29.69951 | 104.33413 | 35019 ft | 458 kts | 358° |
| 2026-04-11 17:02 | 29.76222 | 104.34488 | 35010 ft | 459 kts | 358° |
| 2026-04-11 17:02 | 29.82540 | 104.35573 | 35022 ft | 459 kts | 358° |
| 2026-04-11 17:03 | 29.88855 | 104.36659 | 35014 ft | 459 kts | 358° |
| 2026-04-11 17:03 | 29.95167 | 104.37746 | 35024 ft | 458 kts | 358° |
| 2026-04-11 17:04 | 30.01421 | 104.38825 | 35024 ft | 458 kts | 358° |
| 2026-04-11 17:04 | 30.07724 | 104.39912 | 35027 ft | 458 kts | 358° |
| 2026-04-11 17:05 | 30.14025 | 104.41005 | 35025 ft | 458 kts | 358° |
| 2026-04-11 17:05 | 30.20327 | 104.42107 | 35036 ft | 458 kts | 359° |
| 2026-04-11 17:06 | 30.26573 | 104.43204 | 35011 ft | 457 kts | 359° |
| 2026-04-11 17:06 | 30.32864 | 104.44306 | 35012 ft | 457 kts | 359° |
| 2026-04-11 17:07 | 30.39157 | 104.45411 | 35011 ft | 457 kts | 359° |
| 2026-04-11 17:07 | 30.45448 | 104.46516 | 35015 ft | 457 kts | 359° |
| 2026-04-11 17:08 | 30.51679 | 104.48009 | 35014 ft | 468 kts | 10° |
| 2026-04-11 17:08 | 30.57575 | 104.51512 | 35020 ft | 488 kts | 32° |
| 2026-04-11 17:09 | 30.60113 | 104.54167 | 35020 ft | 495 kts | 44° |
| 2026-04-11 17:09 | 30.62249 | 104.57326 | 35022 ft | 501 kts | 55° |
| 2026-04-11 17:09 | 30.63911 | 104.60888 | 35023 ft | 503 kts | 66° |
| 2026-04-11 17:09 | 30.65122 | 104.64698 | 35026 ft | 504 kts | 73° |
| 2026-04-11 17:13 | 30.78658 | 105.19298 | 35022 ft | 504 kts | 74° |
| 2026-04-11 17:13 | 30.80624 | 105.27115 | 35024 ft | 504 kts | 74° |
| 2026-04-11 17:14 | 30.82576 | 105.34904 | 35017 ft | 506 kts | 74° |
| 2026-04-11 17:14 | 30.84511 | 105.42793 | 35016 ft | 508 kts | 76° |
| 2026-04-11 17:16 | 30.88708 | 105.62618 | 35014 ft | 502 kts | 77° |
| 2026-04-11 17:16 | 30.90360 | 105.70465 | 35013 ft | 504 kts | 77° |
| 2026-04-11 17:17 | 30.92035 | 105.78407 | 35012 ft | 506 kts | 77° |
| 2026-04-11 17:17 | 30.93706 | 105.86352 | 35010 ft | 505 kts | 77° |
| 2026-04-11 17:18 | 30.95371 | 105.94300 | 35008 ft | 505 kts | 77° |
| 2026-04-11 17:18 | 30.96894 | 106.02223 | 35003 ft | 504 kts | 83° |
| 2026-04-11 17:19 | 30.97565 | 106.10350 | 35006 ft | 505 kts | 90° |
| 2026-04-11 17:19 | 30.97940 | 106.18529 | 35005 ft | 505 kts | 90° |
| 2026-04-11 17:20 | 30.98352 | 106.26693 | 35002 ft | 505 kts | 89° |
| 2026-04-11 17:20 | 30.98809 | 106.34799 | 35002 ft | 505 kts | 89° |
| 2026-04-11 17:21 | 30.99279 | 106.42972 | 35002 ft | 507 kts | 89° |
| 2026-04-11 17:21 | 30.99745 | 106.51200 | 35001 ft | 510 kts | 89° |
| 2026-04-11 17:22 | 31.00206 | 106.59403 | 35000 ft | 504 kts | 89° |
| 2026-04-11 17:22 | 31.00653 | 106.67498 | 35002 ft | 504 kts | 89° |
| 2026-04-11 17:23 | 31.01097 | 106.75672 | 34998 ft | 506 kts | 89° |
| 2026-04-11 17:23 | 31.01539 | 106.83882 | 34997 ft | 507 kts | 89° |
| 2026-04-11 17:24 | 31.01977 | 106.92087 | 35001 ft | 507 kts | 89° |
| 2026-04-11 17:24 | 31.02398 | 107.00238 | 35001 ft | 507 kts | 90° |
| 2026-04-11 17:25 | 31.02801 | 107.08452 | 34995 ft | 508 kts | 90° |
| 2026-04-11 17:25 | 31.03213 | 107.16698 | 34999 ft | 511 kts | 90° |
| 2026-04-11 17:26 | 31.03632 | 107.24982 | 35002 ft | 511 kts | 90° |
| 2026-04-11 17:26 | 31.04045 | 107.33192 | 35004 ft | 510 kts | 90° |
| 2026-04-11 17:27 | 31.04452 | 107.41462 | 34990 ft | 511 kts | 90° |
| 2026-04-11 17:27 | 31.04760 | 107.49753 | 35011 ft | 513 kts | 91° |
| 2026-04-11 17:28 | 31.04954 | 107.58029 | 35009 ft | 514 kts | 92° |
| 2026-04-11 17:28 | 31.05111 | 107.66345 | 35010 ft | 513 kts | 92° |
| 2026-04-11 17:29 | 31.05264 | 107.74661 | 34988 ft | 512 kts | 92° |
| 2026-04-11 17:29 | 31.05419 | 107.82987 | 35003 ft | 515 kts | 92° |
| 2026-04-11 17:30 | 31.05572 | 107.91284 | 35004 ft | 514 kts | 92° |
| 2026-04-11 17:30 | 31.05722 | 107.99625 | 35006 ft | 515 kts | 92° |
| 2026-04-11 17:31 | 31.05866 | 108.07970 | 35011 ft | 513 kts | 92° |
| 2026-04-11 17:31 | 31.06005 | 108.16267 | 35003 ft | 511 kts | 92° |
| 2026-04-11 17:32 | 31.06135 | 108.24505 | 35002 ft | 512 kts | 92° |
| 2026-04-11 17:32 | 31.06262 | 108.32792 | 35000 ft | 510 kts | 92° |
| 2026-04-11 17:33 | 31.06383 | 108.41075 | 35005 ft | 511 kts | 92° |
| 2026-04-11 17:33 | 31.06499 | 108.49378 | 34994 ft | 513 kts | 93° |
| 2026-04-11 17:34 | 31.06609 | 108.57646 | 35002 ft | 514 kts | 93° |
| 2026-04-11 17:34 | 31.06709 | 108.65971 | 34998 ft | 513 kts | 93° |
| 2026-04-11 17:35 | 31.06784 | 108.74300 | 35000 ft | 513 kts | 93° |
| 2026-04-11 17:35 | 31.06854 | 108.81220 | 34988 ft | 514 kts | 93° |
| 2026-04-11 17:36 | 31.06957 | 108.90922 | 34991 ft | 515 kts | 93° |
| 2026-04-11 17:36 | 31.07042 | 108.99258 | 35005 ft | 514 kts | 93° |
| 2026-04-11 17:37 | 31.07109 | 109.06190 | 35009 ft | 514 kts | 93° |
| 2026-04-11 17:37 | 31.07196 | 109.15956 | 35001 ft | 515 kts | 93° |
| 2026-04-11 17:38 | 31.07264 | 109.24269 | 35009 ft | 517 kts | 94° |
| 2026-04-11 17:38 | 31.07318 | 109.31284 | 35015 ft | 516 kts | 94° |
| 2026-04-11 17:39 | 31.07376 | 109.39601 | 35007 ft | 516 kts | 94° |
| 2026-04-11 17:39 | 31.07430 | 109.47975 | 35004 ft | 517 kts | 94° |
| 2026-04-11 17:40 | 31.07477 | 109.56379 | 35004 ft | 518 kts | 94° |
| 2026-04-11 17:40 | 31.07508 | 109.64769 | 35011 ft | 517 kts | 94° |
| 2026-04-11 17:41 | 31.06687 | 109.74327 | 35008 ft | 501 kts | 112° |
| 2026-04-11 17:41 | 31.04936 | 109.80701 | 34992 ft | 494 kts | 118° |
| 2026-04-11 17:42 | 31.02604 | 109.88277 | 35014 ft | 500 kts | 118° |
| 2026-04-11 17:42 | 31.00339 | 109.95979 | 35027 ft | 505 kts | 116° |
| 2026-04-11 17:43 | 30.97086 | 110.07522 | 35021 ft | 501 kts | 116° |
| 2026-04-11 17:43 | 30.94904 | 110.15258 | 34976 ft | 500 kts | 116° |
| 2026-04-11 17:44 | 30.92728 | 110.22950 | 35031 ft | 502 kts | 117° |
| 2026-04-11 17:44 | 30.90544 | 110.30621 | 35030 ft | 502 kts | 116° |
| 2026-04-11 17:45 | 30.88343 | 110.38346 | 35026 ft | 503 kts | 116° |
| 2026-04-11 17:45 | 30.86136 | 110.46071 | 35029 ft | 503 kts | 116° |
| 2026-04-11 17:46 | 30.83925 | 110.53792 | 35039 ft | 504 kts | 116° |
| 2026-04-11 17:46 | 30.81714 | 110.61488 | 35029 ft | 503 kts | 117° |
| 2026-04-11 17:47 | 30.79474 | 110.69203 | 35037 ft | 504 kts | 117° |
| 2026-04-11 17:47 | 30.77230 | 110.76914 | 35021 ft | 504 kts | 117° |
| 2026-04-11 17:48 | 30.73870 | 110.88499 | 35022 ft | 506 kts | 117° |
| 2026-04-11 17:49 | 30.70517 | 111.00042 | 35019 ft | 507 kts | 117° |
| 2026-04-11 17:50 | 30.67126 | 111.11670 | 35013 ft | 505 kts | 117° |
| 2026-04-11 17:50 | 30.64867 | 111.19394 | 35002 ft | 505 kts | 117° |
| 2026-04-11 17:51 | 30.62858 | 111.27177 | 35004 ft | 515 kts | 104° |
| 2026-04-11 17:51 | 30.63056 | 111.35590 | 35002 ft | 528 kts | 83° |
| 2026-04-11 17:51 | 30.63729 | 111.39793 | 34999 ft | 530 kts | 80° |
| 2026-04-11 17:52 | 30.65126 | 111.48200 | 34997 ft | 529 kts | 84° |
| 2026-04-11 17:52 | 30.65839 | 111.56679 | 34997 ft | 527 kts | 90° |
| 2026-04-11 17:53 | 30.66215 | 111.65120 | 34994 ft | 527 kts | 91° |
| 2026-04-11 17:53 | 30.66588 | 111.73617 | 34995 ft | 527 kts | 90° |
| 2026-04-11 17:54 | 30.67004 | 111.82110 | 34978 ft | 527 kts | 90° |
| 2026-04-11 17:54 | 30.67436 | 111.90610 | 34987 ft | 528 kts | 90° |
| 2026-04-11 17:55 | 30.67900 | 111.99064 | 34987 ft | 528 kts | 89° |
| 2026-04-11 17:55 | 30.68474 | 112.07574 | 34996 ft | 528 kts | 89° |
| 2026-04-11 17:56 | 30.69071 | 112.16067 | 34975 ft | 527 kts | 89° |
| 2026-04-11 17:56 | 30.69656 | 112.24569 | 34980 ft | 528 kts | 89° |
| 2026-04-11 17:57 | 30.70225 | 112.33020 | 34978 ft | 528 kts | 89° |